Time;durP1;ratioP1;P1;durP2;ratioP2;P2;SDS_P1;SDS_P2;PMS_P1;PMS_P2;Temp;Humidity;BMP_temperature;BMP_pressure;BME280_temperature;BME280_humidity;BME280_pressure;Samples;Min_cycle;Max_cycle;Signal;HPM_P1;HPM_P2
2023/07/27 00:00:07;;;;;;;29.15;22.17;;;10.80;99.90;;;;;;5034968;28;20133;-76
2023/07/27 00:02:35;;;;;;;30.38;22.10;;;10.90;99.90;;;;;;5031161;28;20632;-76
2023/07/27 00:05:03;;;;;;;31.50;22.13;;;11.00;99.90;;;;;;5031462;28;20272;-75
2023/07/27 00:07:29;;;;;;;34.08;22.23;;;11.00;99.90;;;;;;5019103;28;20142;-76
2023/07/27 00:09:56;;;;;;;32.88;22.35;;;11.00;99.90;;;;;;5030455;28;20410;-76
2023/07/27 00:12:23;;;;;;;33.20;22.13;;;10.90;99.90;;;;;;5027510;28;20049;-75
2023/07/27 00:14:52;;;;;;;33.10;20.92;;;10.90;99.90;;;;;;5043853;28;20110;-76
2023/07/27 00:17:18;;;;;;;31.95;21.40;;;11.00;99.90;;;;;;5045692;28;20514;-76
2023/07/27 00:19:45;;;;;;;34.97;24.02;;;11.00;99.90;;;;;;5018217;28;20133;-75
2023/07/27 00:22:12;;;;;;;28.08;20.67;;;11.10;99.90;;;;;;5055418;28;20059;-76
2023/07/27 00:24:39;;;;;;;27.30;21.58;;;11.20;99.90;;;;;;5041666;28;20045;-75
2023/07/27 00:27:06;;;;;;;27.05;20.95;;;11.20;99.90;;;;;;5039286;28;20037;-76
2023/07/27 00:29:33;;;;;;;29.35;21.23;;;11.30;99.90;;;;;;5036640;28;20048;-75
2023/07/27 00:31:59;;;;;;;27.25;21.92;;;11.20;99.90;;;;;;5022956;28;21704;-75
2023/07/27 00:34:26;;;;;;;23.35;19.25;;;11.40;99.90;;;;;;5033862;28;20449;-75
2023/07/27 00:36:53;;;;;;;28.08;20.52;;;11.30;99.90;;;;;;5037996;28;20047;-75
2023/07/27 00:39:20;;;;;;;24.05;18.67;;;11.20;99.90;;;;;;5020324;28;20045;-75
2023/07/27 00:41:47;;;;;;;26.92;20.60;;;11.20;99.90;;;;;;5032123;28;20075;-76
2023/07/27 00:44:14;;;;;;;27.52;19.13;;;11.30;99.90;;;;;;5018798;28;20132;-75
2023/07/27 00:46:42;;;;;;;21.45;17.70;;;11.40;99.90;;;;;;5013517;28;20041;-74
2023/07/27 00:49:10;;;;;;;22.15;18.38;;;11.50;99.90;;;;;;5015628;28;20045;-75
2023/07/27 00:51:42;;;;;;;23.42;18.65;;;11.50;99.90;;;;;;5035233;28;20103;-75
2023/07/27 00:54:10;;;;;;;22.48;16.65;;;11.60;99.90;;;;;;5039759;28;20488;-75
2023/07/27 00:56:38;;;;;;;20.88;17.35;;;11.60;99.90;;;;;;5018019;28;20739;-75
2023/07/27 00:59:06;;;;;;;24.55;18.42;;;11.60;99.90;;;;;;5039532;28;20761;-75
2023/07/27 01:01:33;;;;;;;24.38;18.50;;;11.60;99.90;;;;;;5032920;28;20088;-74
2023/07/27 01:04:00;;;;;;;24.00;18.38;;;11.60;99.90;;;;;;5036057;28;20077;-75
2023/07/27 01:06:27;;;;;;;24.42;18.73;;;11.40;99.90;;;;;;5033075;28;20043;-75
2023/07/27 01:08:54;;;;;;;22.85;18.15;;;11.40;99.90;;;;;;5028831;28;20044;-75
2023/07/27 01:11:34;;;;;;;25.67;17.65;;;11.50;99.90;;;;;;5030023;28;20045;-76
2023/07/27 01:14:17;;;;;;;19.42;16.73;;;11.50;99.90;;;;;;5030168;28;20045;-75
2023/07/27 01:16:56;;;;;;;21.67;17.77;;;11.60;99.90;;;;;;5014583;28;20632;-74
2023/07/27 01:19:50;;;;;;;25.30;18.35;;;11.70;99.90;;;;;;5031132;28;20053;-74
2023/07/27 01:22:32;;;;;;;26.90;18.75;;;11.80;99.90;;;;;;5023222;28;20049;-73
2023/07/27 01:25:17;;;;;;;24.45;20.42;;;11.70;99.90;;;;;;5028108;28;20029;-75
2023/07/27 01:27:47;;;;;;;23.80;17.95;;;11.80;99.90;;;;;;5029644;28;20049;-73
2023/07/27 01:30:28;;;;;;;26.20;18.95;;;11.80;99.90;;;;;;5013399;28;20110;-75
2023/07/27 01:33:05;;;;;;;28.13;19.88;;;11.80;99.90;;;;;;5037256;28;20055;-75
2023/07/27 01:35:39;;;;;;;28.58;19.80;;;11.80;99.90;;;;;;5066920;28;20051;-73
2023/07/27 01:38:08;;;;;;;32.13;19.65;;;11.80;99.90;;;;;;5059834;28;20583;-74
2023/07/27 01:40:35;;;;;;;22.77;18.40;;;11.90;99.90;;;;;;5049681;28;20106;-74
2023/07/27 01:43:03;;;;;;;24.55;18.33;;;12.00;99.90;;;;;;5037106;28;20106;-74
2023/07/27 01:45:32;;;;;;;23.65;17.05;;;12.10;99.90;;;;;;5047776;28;20052;-74
2023/07/27 01:48:00;;;;;;;18.92;16.05;;;12.20;99.90;;;;;;5055617;28;20052;-72
2023/07/27 01:50:29;;;;;;;23.00;18.23;;;12.30;99.90;;;;;;5054247;28;20036;-71
2023/07/27 01:52:56;;;;;;;22.23;18.55;;;12.50;99.90;;;;;;5048900;28;20056;-71
2023/07/27 01:55:24;;;;;;;24.38;19.98;;;12.50;99.90;;;;;;5037948;28;20689;-73
2023/07/27 01:57:53;;;;;;;29.90;20.13;;;12.50;99.90;;;;;;5041472;28;20036;-73
2023/07/27 02:00:20;;;;;;;21.35;17.77;;;12.40;99.90;;;;;;5032795;28;20048;-73
2023/07/27 02:02:49;;;;;;;23.75;17.77;;;12.30;99.90;;;;;;5057107;28;21512;-73
2023/07/27 02:05:16;;;;;;;22.52;18.48;;;12.30;99.90;;;;;;5027709;28;20049;-74
2023/07/27 02:07:45;;;;;;;20.50;16.92;;;12.30;99.90;;;;;;5039148;28;20044;-72
2023/07/27 02:10:14;;;;;;;23.35;18.10;;;12.40;99.90;;;;;;5037972;28;20457;-74
2023/07/27 02:12:47;;;;;;;25.10;17.40;;;12.50;99.90;;;;;;5038435;28;20542;-72
2023/07/27 02:15:22;;;;;;;19.98;17.33;;;12.40;99.90;;;;;;5017763;28;20056;-73
2023/07/27 02:17:51;;;;;;;;;;;12.40;99.90;;;;;;5041129;28;20052;-71
2023/07/27 02:20:20;;;;;;;20.50;17.50;;;12.50;99.90;;;;;;5039718;28;20452;-74
2023/07/27 02:22:48;;;;;;;23.33;16.95;;;12.60;99.90;;;;;;5039311;28;20124;-72
2023/07/27 02:25:16;;;;;;;20.42;17.08;;;12.60;99.90;;;;;;5038716;28;20044;-72
2023/07/27 02:27:44;;;;;;;21.08;18.88;;;12.70;99.90;;;;;;5035923;28;20131;-71
2023/07/27 02:30:11;;;;;;;22.90;20.48;;;12.60;99.90;;;;;;5038503;28;20052;-73
2023/07/27 02:32:38;;;;;;;20.92;19.02;;;12.60;99.90;;;;;;5049070;28;20041;-73
2023/07/27 02:35:05;;;;;;;22.38;19.95;;;12.60;99.90;;;;;;5043492;28;20057;-73
2023/07/27 02:37:32;;;;;;;22.95;20.85;;;12.60;99.90;;;;;;5055714;28;20056;-73
2023/07/27 02:39:59;;;;;;;21.15;19.02;;;12.60;99.90;;;;;;5057197;28;20100;-73
2023/07/27 02:42:25;;;;;;;20.98;19.00;;;12.70;99.90;;;;;;5041816;28;20037;-73
2023/07/27 02:44:52;;;;;;;21.40;19.15;;;12.70;99.90;;;;;;5043755;28;20504;-73
2023/07/27 02:47:19;;;;;;;21.92;19.73;;;12.70;99.90;;;;;;5027911;28;20034;-72
2023/07/27 02:49:46;;;;;;;21.95;18.75;;;12.60;99.90;;;;;;5040835;28;20052;-74
2023/07/27 02:52:13;;;;;;;21.40;19.38;;;12.60;99.90;;;;;;5034706;28;20049;-73
2023/07/27 02:54:40;;;;;;;23.38;19.48;;;12.70;99.90;;;;;;5046762;28;20056;-73
2023/07/27 02:57:07;;;;;;;20.52;18.63;;;12.60;99.90;;;;;;5025040;28;20044;-72
2023/07/27 02:59:41;;;;;;;22.42;20.20;;;12.60;99.90;;;;;;5022517;28;20165;-73
2023/07/27 03:02:09;;;;;;;22.38;20.38;;;12.60;99.90;;;;;;5011979;28;20041;-73
2023/07/27 03:04:38;;;;;;;25.23;21.92;;;12.60;99.90;;;;;;5032392;28;20108;-73
2023/07/27 03:07:07;;;;;;;24.02;21.77;;;12.60;99.90;;;;;;5028675;28;20049;-73
2023/07/27 03:09:35;;;;;;;23.13;20.88;;;12.60;99.90;;;;;;5019727;28;20041;-72
2023/07/27 03:12:02;;;;;;;24.05;21.52;;;12.60;99.90;;;;;;5027251;28;20045;-73
2023/07/27 03:14:29;;;;;;;22.88;20.80;;;12.60;99.90;;;;;;5034826;28;20090;-73
2023/07/27 03:16:56;;;;;;;22.83;20.73;;;12.60;99.90;;;;;;5022765;28;20042;-73
2023/07/27 03:19:23;;;;;;;22.70;20.60;;;12.60;99.90;;;;;;5014130;28;20143;-73
2023/07/27 03:21:50;;;;;;;21.25;19.35;;;12.50;99.90;;;;;;5034918;28;20090;-73
2023/07/27 03:24:17;;;;;;;22.08;19.85;;;12.60;99.90;;;;;;5026256;28;20090;-72
2023/07/27 03:26:44;;;;;;;20.60;18.55;;;12.50;99.90;;;;;;5018100;28;20059;-73
2023/07/27 03:29:11;;;;;;;22.17;19.95;;;12.50;99.90;;;;;;5030682;28;20573;-74
2023/07/27 03:31:38;;;;;;;20.27;18.33;;;12.50;99.90;;;;;;5022629;28;20571;-73
2023/07/27 03:34:05;;;;;;;21.15;19.25;;;12.50;99.90;;;;;;5046803;28;20048;-74
2023/07/27 03:36:32;;;;;;;20.13;18.50;;;12.40;99.90;;;;;;5034031;28;20045;-74
2023/07/27 03:38:59;;;;;;;22.23;20.27;;;12.50;99.90;;;;;;5047918;28;20324;-72
2023/07/27 03:41:26;;;;;;;20.20;18.50;;;12.60;99.90;;;;;;5058020;28;20036;-75
2023/07/27 03:43:53;;;;;;;20.90;18.70;;;12.60;99.90;;;;;;5040502;28;20054;-74
2023/07/27 03:46:20;;;;;;;19.83;18.20;;;12.60;99.90;;;;;;5029485;28;20057;-72
2023/07/27 03:48:50;;;;;;;19.27;17.55;;;12.50;99.90;;;;;;5016417;28;20053;-73
2023/07/27 03:51:17;;;;;;;19.55;17.80;;;12.50;99.90;;;;;;5017659;28;20559;-72
2023/07/27 03:53:44;;;;;;;19.50;17.55;;;12.50;99.90;;;;;;5030717;28;20519;-73
2023/07/27 03:56:11;;;;;;;19.95;16.88;;;12.60;99.90;;;;;;5040944;28;20047;-72
2023/07/27 03:58:38;;;;;;;19.33;17.55;;;12.60;99.90;;;;;;5038252;28;20048;-73
2023/07/27 04:01:05;;;;;;;19.73;17.92;;;12.60;99.90;;;;;;5044034;28;20060;-75
2023/07/27 04:03:31;;;;;;;19.15;17.65;;;12.50;99.90;;;;;;5046819;28;20056;-73
2023/07/27 04:05:59;;;;;;;18.83;17.25;;;12.50;99.90;;;;;;5024233;28;20043;-72
2023/07/27 04:08:25;;;;;;;19.25;17.48;;;12.60;99.90;;;;;;5032420;28;20459;-72
2023/07/27 04:10:52;;;;;;;20.23;18.42;;;12.60;99.90;;;;;;5016856;28;20057;-75
2023/07/27 04:13:19;;;;;;;18.63;16.60;;;12.70;99.90;;;;;;5020765;28;20044;-72
2023/07/27 04:15:46;;;;;;;20.55;17.02;;;12.70;99.90;;;;;;5001065;28;20563;-72
2023/07/27 04:18:12;;;;;;;18.33;16.73;;;12.70;99.90;;;;;;5035274;28;20051;-72
2023/07/27 04:20:39;;;;;;;16.95;14.88;;;12.70;99.90;;;;;;5028748;28;20721;-74
2023/07/27 04:23:06;;;;;;;18.88;17.23;;;12.70;99.90;;;;;;5048408;28;20040;-74
2023/07/27 04:25:33;;;;;;;19.83;18.13;;;12.80;99.90;;;;;;5047861;28;20040;-73
2023/07/27 04:28:00;;;;;;;20.00;18.30;;;12.80;99.90;;;;;;5017038;28;20029;-74
2023/07/27 04:30:27;;;;;;;19.70;17.73;;;12.80;99.90;;;;;;5025436;28;20045;-74
2023/07/27 04:32:54;;;;;;;19.92;18.17;;;12.80;99.90;;;;;;5018535;28;20049;-74
2023/07/27 04:35:20;;;;;;;21.73;19.13;;;12.90;99.90;;;;;;5033054;28;20041;-72
2023/07/27 04:37:47;;;;;;;19.25;17.58;;;12.90;99.90;;;;;;5035528;28;20113;-72
2023/07/27 04:40:14;;;;;;;18.42;16.38;;;12.80;99.90;;;;;;5034588;28;20044;-74
2023/07/27 04:42:41;;;;;;;18.27;16.58;;;12.80;99.90;;;;;;5025423;28;20704;-72
2023/07/27 04:45:08;;;;;;;18.80;17.25;;;12.80;99.90;;;;;;5020451;28;20053;-72
2023/07/27 04:47:35;;;;;;;16.92;15.48;;;12.80;99.90;;;;;;5055547;28;20040;-73
2023/07/27 04:50:04;;;;;;;18.50;16.60;;;12.80;99.90;;;;;;5046791;28;20040;-72
2023/07/27 04:52:31;;;;;;;21.67;17.27;;;12.80;99.90;;;;;;5049291;28;20036;-72
2023/07/27 04:54:59;;;;;;;18.80;17.20;;;12.80;99.90;;;;;;5041517;28;20852;-74
2023/07/27 04:57:26;;;;;;;19.88;17.77;;;12.90;99.90;;;;;;5046463;28;20141;-73
2023/07/27 04:59:53;;;;;;;18.77;16.98;;;12.90;99.90;;;;;;5037282;28;20737;-73
2023/07/27 05:02:19;;;;;;;19.63;17.02;;;12.90;99.90;;;;;;5036356;28;20045;-74
2023/07/27 05:04:48;;;;;;;20.27;18.20;;;12.90;99.90;;;;;;5034582;28;20387;-74
2023/07/27 05:07:15;;;;;;;20.38;17.70;;;13.00;99.90;;;;;;5038147;28;20091;-72
2023/07/27 05:09:42;;;;;;;19.92;17.77;;;12.90;99.90;;;;;;5035225;28;20041;-72
2023/07/27 05:12:08;;;;;;;19.40;17.38;;;13.00;99.90;;;;;;5031809;28;20088;-73
2023/07/27 05:14:35;;;;;;;19.67;17.50;;;12.90;99.90;;;;;;5038451;28;20482;-73
2023/07/27 05:17:02;;;;;;;18.33;16.60;;;13.00;99.90;;;;;;5032586;28;20091;-72
2023/07/27 05:19:29;;;;;;;18.05;16.17;;;12.90;99.90;;;;;;5032474;28;20045;-73
2023/07/27 05:21:55;;;;;;;17.67;15.82;;;13.00;99.90;;;;;;5031229;28;20095;-72
2023/07/27 05:24:22;;;;;;;19.10;17.02;;;13.00;99.90;;;;;;5033696;28;20056;-72
2023/07/27 05:26:51;;;;;;;22.42;17.75;;;13.00;99.90;;;;;;5021299;28;20051;-72
2023/07/27 05:29:18;;;;;;;19.30;16.75;;;13.00;99.90;;;;;;5032043;28;20064;-73
2023/07/27 05:31:47;;;;;;;19.23;16.95;;;13.00;99.90;;;;;;5011245;28;20743;-74
2023/07/27 05:34:13;;;;;;;20.33;16.33;;;13.00;99.90;;;;;;5019112;28;20640;-72
2023/07/27 05:36:40;;;;;;;21.30;16.25;;;13.00;99.90;;;;;;5028437;28;20082;-75
2023/07/27 05:39:08;;;;;;;19.25;16.23;;;13.00;99.90;;;;;;5031098;28;20759;-74
2023/07/27 05:41:35;;;;;;;23.17;17.35;;;13.00;99.90;;;;;;5023125;28;20088;-73
2023/07/27 05:44:02;;;;;;;19.60;16.48;;;13.00;99.90;;;;;;5008265;28;20816;-74
2023/07/27 05:46:29;;;;;;;18.92;16.25;;;13.00;99.90;;;;;;5024389;28;20060;-73
2023/07/27 05:48:57;;;;;;;18.42;16.40;;;13.00;99.90;;;;;;5026585;28;20041;-74
2023/07/27 05:51:24;;;;;;;22.60;16.63;;;13.00;99.90;;;;;;5035229;28;20040;-74
2023/07/27 05:53:51;;;;;;;19.80;17.02;;;13.00;99.90;;;;;;5030003;28;20046;-72
2023/07/27 05:56:18;;;;;;;23.10;18.60;;;13.00;99.90;;;;;;5029382;28;20751;-72
2023/07/27 05:58:45;;;;;;;21.55;17.83;;;12.90;99.90;;;;;;5031389;28;20076;-73
2023/07/27 06:01:11;;;;;;;23.00;16.45;;;12.90;99.90;;;;;;5014395;28;20524;-73
2023/07/27 06:03:38;;;;;;;20.45;15.63;;;12.90;99.90;;;;;;5026419;28;20053;-72
2023/07/27 06:06:08;;;;;;;24.13;14.57;;;12.90;99.90;;;;;;5037076;28;20426;-72
2023/07/27 06:08:34;;;;;;;21.70;15.52;;;12.80;99.90;;;;;;5036354;28;20049;-72
2023/07/27 06:11:04;;;;;;;21.90;14.98;;;12.80;99.90;;;;;;5033596;28;20557;-73
2023/07/27 06:13:32;;;;;;;17.88;14.18;;;12.90;99.90;;;;;;5030982;28;20048;-72
2023/07/27 06:15:59;;;;;;;22.08;14.20;;;12.90;99.90;;;;;;5023464;28;20036;-73
2023/07/27 06:18:26;;;;;;;22.30;14.38;;;12.90;99.90;;;;;;5040466;28;20053;-73
2023/07/27 06:20:53;;;;;;;16.73;13.40;;;13.00;99.90;;;;;;5046414;28;20099;-72
2023/07/27 06:23:20;;;;;;;19.25;14.57;;;13.00;99.90;;;;;;5043636;28;20048;-72
2023/07/27 06:25:48;;;;;;;18.02;14.82;;;13.10;99.90;;;;;;5042614;28;20036;-72
2023/07/27 06:28:14;;;;;;;19.73;12.77;;;13.10;99.90;;;;;;5047645;28;20649;-73
2023/07/27 06:30:41;;;;;;;19.42;13.68;;;13.30;99.90;;;;;;5028972;28;20049;-74
2023/07/27 06:33:10;;;;;;;19.95;13.90;;;13.30;99.90;;;;;;5031204;28;20134;-73
2023/07/27 06:35:37;;;;;;;19.52;13.73;;;13.40;99.90;;;;;;5035768;28;20045;-74
2023/07/27 06:38:04;;;;;;;19.48;13.32;;;13.50;99.90;;;;;;5007548;28;20055;-74
2023/07/27 06:40:31;;;;;;;17.95;12.98;;;13.50;99.90;;;;;;5017764;28;20111;-74
2023/07/27 06:42:58;;;;;;;15.27;12.25;;;13.50;99.90;;;;;;5015917;28;20049;-74
2023/07/27 06:45:24;;;;;;;19.35;12.27;;;13.50;99.90;;;;;;5022867;28;20037;-74
2023/07/27 06:47:52;;;;;;;16.70;11.68;;;13.50;99.90;;;;;;5025832;28;20710;-74
2023/07/27 06:50:19;;;;;;;17.00;11.52;;;13.50;99.90;;;;;;5036480;28;20685;-74
2023/07/27 06:52:45;;;;;;;13.57;11.57;;;13.50;99.90;;;;;;5019930;28;20029;-73
2023/07/27 06:55:13;;;;;;;15.35;10.88;;;13.50;99.90;;;;;;5032281;28;20107;-73
2023/07/27 06:57:40;;;;;;;14.68;10.32;;;13.50;99.90;;;;;;5031576;28;20033;-74
2023/07/27 07:00:07;;;;;;;12.48;10.13;;;13.60;99.90;;;;;;5022278;28;20045;-74
2023/07/27 07:02:34;;;;;;;17.08;10.73;;;13.60;99.90;;;;;;5025880;28;20053;-72
2023/07/27 07:05:02;;;;;;;11.98;10.73;;;13.70;99.90;;;;;;4997658;28;20038;-72
2023/07/27 07:07:29;;;;;;;11.07;10.00;;;13.70;99.90;;;;;;5023617;28;20097;-72
2023/07/27 07:09:56;;;;;;;19.38;11.15;;;13.70;99.90;;;;;;5015336;28;20103;-72
2023/07/27 07:12:23;;;;;;;13.10;10.77;;;13.80;99.90;;;;;;5027536;28;20076;-72
2023/07/27 07:14:50;;;;;;;12.43;11.13;;;13.80;99.90;;;;;;5027013;28;20140;-73
2023/07/27 07:17:16;;;;;;;13.43;11.15;;;13.80;99.90;;;;;;5018199;28;20047;-73
2023/07/27 07:19:43;;;;;;;17.92;12.38;;;13.80;99.90;;;;;;5032235;28;20045;-72
2023/07/27 07:22:10;;;;;;;21.67;12.60;;;13.80;99.90;;;;;;5023299;28;20048;-73
2023/07/27 07:24:37;;;;;;;16.73;11.95;;;13.90;99.90;;;;;;5016879;28;20130;-72
2023/07/27 07:27:04;;;;;;;14.32;11.98;;;14.00;99.90;;;;;;5007250;28;20056;-72
2023/07/27 07:29:30;;;;;;;19.60;12.43;;;13.90;99.90;;;;;;5024895;28;20797;-72
2023/07/27 07:31:57;;;;;;;15.75;11.70;;;13.80;99.90;;;;;;5030539;28;20109;-72
2023/07/27 07:34:24;;;;;;;16.73;11.85;;;13.80;99.90;;;;;;5028792;28;20107;-72
2023/07/27 07:36:51;;;;;;;17.02;11.63;;;13.80;99.90;;;;;;5026308;28;20065;-72
2023/07/27 07:39:18;;;;;;;17.52;13.43;;;13.70;99.90;;;;;;5037772;28;20056;-72
2023/07/27 07:41:44;;;;;;;16.08;11.30;;;13.70;99.90;;;;;;5025755;28;20571;-74
2023/07/27 07:44:11;;;;;;;14.57;11.43;;;13.60;99.90;;;;;;5009443;28;20061;-73
2023/07/27 07:46:38;;;;;;;16.35;10.68;;;13.40;99.90;;;;;;5035486;28;20037;-72
2023/07/27 07:49:05;;;;;;;19.73;12.23;;;13.30;99.90;;;;;;5013534;28;20072;-73
2023/07/27 07:51:32;;;;;;;18.60;10.95;;;13.30;99.90;;;;;;5024741;28;20032;-73
2023/07/27 07:53:58;;;;;;;15.57;11.32;;;13.20;99.90;;;;;;5051928;28;20052;-73
2023/07/27 07:56:25;;;;;;;18.75;12.23;;;13.20;99.90;;;;;;5044828;28;20048;-74
2023/07/27 07:58:52;;;;;;;15.18;11.00;;;13.10;99.90;;;;;;5053036;28;20044;-72
2023/07/27 08:01:19;;;;;;;14.48;11.32;;;13.00;99.90;;;;;;5052079;28;20098;-73
2023/07/27 08:03:45;;;;;;;17.45;11.98;;;13.00;99.90;;;;;;5047083;28;20063;-72
2023/07/27 08:06:12;;;;;;;15.80;11.77;;;13.10;99.90;;;;;;5045263;28;20075;-72
2023/07/27 08:08:39;;;;;;;16.80;9.95;;;13.00;99.90;;;;;;5055931;28;20040;-73
2023/07/27 08:11:06;;;;;;;14.13;9.35;;;13.00;99.90;;;;;;5050537;28;20047;-72
2023/07/27 08:13:33;;;;;;;15.13;10.68;;;12.90;99.90;;;;;;5034483;28;20526;-72
2023/07/27 08:16:01;;;;;;;16.08;10.20;;;13.00;99.90;;;;;;5050710;28;20072;-73
2023/07/27 08:18:31;;;;;;;14.73;11.00;;;13.00;99.90;;;;;;5047124;28;20060;-72
2023/07/27 08:21:04;;;;;;;17.67;10.95;;;13.00;99.90;;;;;;5033741;28;20524;-72
2023/07/27 08:23:31;;;;;;;13.60;10.10;;;13.10;99.90;;;;;;5028357;28;20682;-72
2023/07/27 08:26:00;;;;;;;16.23;10.95;;;13.10;99.90;;;;;;5019394;28;20037;-72
2023/07/27 08:28:27;;;;;;;17.65;11.57;;;13.10;99.90;;;;;;5048855;28;20040;-72
2023/07/27 08:30:54;;;;;;;18.63;11.55;;;13.20;99.90;;;;;;5049527;28;20477;-72
2023/07/27 08:33:21;;;;;;;14.38;10.15;;;13.10;99.90;;;;;;5034648;28;20049;-72
2023/07/27 08:35:48;;;;;;;17.55;10.35;;;13.10;99.90;;;;;;5031795;28;20140;-72
2023/07/27 08:38:14;;;;;;;14.25;10.57;;;13.20;99.90;;;;;;5035238;28;20036;-71
2023/07/27 08:40:52;;;;;;;17.33;9.82;;;13.20;99.90;;;;;;5031153;28;20048;-74
2023/07/27 08:43:19;;;;;;;13.98;10.32;;;13.20;99.90;;;;;;5029157;28;20094;-72
2023/07/27 08:45:46;;;;;;;13.27;10.15;;;13.20;99.90;;;;;;5018766;28;20040;-74
2023/07/27 08:48:14;;;;;;;14.65;11.75;;;13.30;99.90;;;;;;5048692;28;20047;-72
2023/07/27 08:50:43;;;;;;;12.13;9.13;;;13.30;99.90;;;;;;5035729;28;20650;-72
2023/07/27 08:53:11;;;;;;;13.18;10.23;;;13.30;99.90;;;;;;5055788;28;20689;-71
2023/07/27 08:55:41;;;;;;;12.85;10.02;;;13.40;99.90;;;;;;5046924;28;20141;-73
2023/07/27 08:58:09;;;;;;;13.18;9.63;;;13.50;99.90;;;;;;5036596;28;20048;-73
2023/07/27 09:00:38;;;;;;;12.45;9.73;;;13.50;99.90;;;;;;5054339;28;20056;-72
2023/07/27 09:03:07;;;;;;;10.95;8.73;;;13.60;99.90;;;;;;5039004;28;20048;-72
2023/07/27 09:06:01;;;;;;;11.40;8.57;;;13.60;99.90;;;;;;5046232;28;20036;-71
2023/07/27 09:08:29;;;;;;;10.63;8.38;;;13.60;99.90;;;;;;5030596;28;20045;-71
2023/07/27 09:11:24;;;;;;;11.80;8.43;;;13.60;99.90;;;;;;5037559;28;20036;-72
2023/07/27 09:13:50;;;;;;;10.75;8.00;;;13.70;99.90;;;;;;5035328;28;20127;-72
2023/07/27 09:16:21;;;;;;;10.05;8.00;;;13.60;99.90;;;;;;5030470;28;20845;-72
2023/07/27 09:18:48;;;;;;;10.75;6.72;;;13.70;99.90;;;;;;5021756;28;20041;-72
2023/07/27 09:21:16;;;;;;;7.28;6.57;;;13.70;99.90;;;;;;5031358;28;20041;-72
2023/07/27 09:23:42;;;;;;;7.90;6.28;;;13.70;99.90;;;;;;5032732;28;20045;-71
2023/07/27 09:26:09;;;;;;;7.88;6.85;;;13.70;99.90;;;;;;5031100;28;20044;-71
2023/07/27 09:28:36;;;;;;;7.82;6.38;;;13.80;99.90;;;;;;5022055;28;20037;-72
2023/07/27 09:31:02;;;;;;;5.50;5.00;;;13.80;99.90;;;;;;5038536;28;20465;-71
2023/07/27 09:33:30;;;;;;;7.53;5.25;;;13.80;99.90;;;;;;5041099;28;20083;-72
2023/07/27 09:35:57;;;;;;;7.05;6.28;;;13.90;99.90;;;;;;5039502;28;20041;-72
2023/07/27 09:38:26;;;;;;;7.07;5.03;;;14.00;99.90;;;;;;5041488;28;20060;-72
2023/07/27 09:40:53;;;;;;;6.80;5.30;;;14.00;99.90;;;;;;5038888;28;20041;-72
2023/07/27 09:43:24;;;;;;;6.15;5.10;;;14.00;99.90;;;;;;5054795;28;20053;-72
2023/07/27 09:45:58;;;;;;;4.25;3.85;;;14.00;99.90;;;;;;5032458;28;20071;-72
2023/07/27 09:48:28;;;;;;;3.95;3.53;;;14.00;99.90;;;;;;5046329;28;20037;-72
2023/07/27 09:51:01;;;;;;;5.18;3.78;;;14.10;99.90;;;;;;5037036;28;20041;-71
2023/07/27 09:53:32;;;;;;;3.30;2.92;;;14.10;99.90;;;;;;5016935;28;20627;-71
2023/07/27 09:55:59;;;;;;;2.25;2.05;;;14.10;99.90;;;;;;5035176;28;20059;-71
2023/07/27 09:58:28;;;;;;;2.97;2.67;;;14.10;99.90;;;;;;5067398;28;20041;-73
2023/07/27 10:00:55;;;;;;;4.22;3.15;;;14.10;99.90;;;;;;5029345;28;20726;-73
2023/07/27 10:03:21;;;;;;;2.97;2.58;;;14.20;99.90;;;;;;5041585;28;20101;-72
2023/07/27 10:05:48;;;;;;;3.92;2.33;;;14.20;99.90;;;;;;5041082;28;20989;-71
2023/07/27 10:08:17;;;;;;;2.40;2.20;;;14.30;99.90;;;;;;5038225;28;20389;-72
2023/07/27 10:10:46;;;;;;;2.85;1.85;;;14.30;99.90;;;;;;5039540;28;20060;-72
2023/07/27 10:13:36;;;;;;;2.22;1.98;;;14.30;99.90;;;;;;5041461;28;20051;-72
2023/07/27 10:16:08;;;;;;;2.13;1.92;;;14.30;99.90;;;;;;5035278;28;20044;-71
2023/07/27 10:18:40;;;;;;;1.65;1.50;;;14.40;99.90;;;;;;5023828;28;20052;-74
2023/07/27 10:21:29;;;;;;;3.30;1.77;;;14.40;99.90;;;;;;5027561;28;20431;-73
2023/07/27 10:23:59;;;;;;;1.60;1.50;;;14.50;99.90;;;;;;5056505;28;20044;-73
2023/07/27 10:26:50;;;;;;;2.10;1.90;;;14.50;99.90;;;;;;5065362;28;20501;-75
2023/07/27 10:29:25;;;;;;;1.95;1.42;;;14.60;99.90;;;;;;5038196;28;20063;-72
2023/07/27 10:31:59;;;;;;;;;;;14.70;99.90;;;;;;5039833;28;20036;-73
2023/07/27 10:34:27;;;;;;;1.77;1.63;;;14.70;99.90;;;;;;5025838;28;20287;-73
2023/07/27 10:37:03;;;;;;;1.20;1.10;;;14.70;99.90;;;;;;5037257;28;20045;-73
2023/07/27 10:39:50;;;;;;;1.58;1.48;;;14.80;99.90;;;;;;5038499;28;20044;-73
2023/07/27 10:42:19;;;;;;;1.10;1.00;;;14.90;99.90;;;;;;5034689;28;20049;-72
2023/07/27 10:44:46;;;;;;;1.02;1.00;;;14.80;99.90;;;;;;5034260;28;20041;-72
2023/07/27 10:47:25;;;;;;;2.58;1.80;;;14.80;99.90;;;;;;5002409;28;20113;-72
2023/07/27 10:49:57;;;;;;;2.00;1.67;;;14.90;99.90;;;;;;5036559;28;20037;-72
2023/07/27 10:52:36;;;;;;;1.15;1.00;;;15.00;99.90;;;;;;5024646;28;20721;-72
2023/07/27 10:55:05;;;;;;;0.90;0.90;;;15.10;99.90;;;;;;5030183;28;20110;-72
2023/07/27 10:57:33;;;;;;;1.20;1.10;;;15.10;99.90;;;;;;5018962;28;20042;-72
2023/07/27 11:00:00;;;;;;;1.75;0.98;;;15.00;99.90;;;;;;5033004;28;20056;-72
2023/07/27 11:02:29;;;;;;;2.35;1.27;;;15.00;99.90;;;;;;5040308;28;20037;-72
2023/07/27 11:04:58;;;;;;;1.30;1.20;;;14.90;99.90;;;;;;5035487;28;20052;-73
2023/07/27 11:07:27;;;;;;;1.55;1.40;;;15.00;99.90;;;;;;5013569;28;20048;-72
2023/07/27 11:09:55;;;;;;;0.88;0.80;;;15.10;99.90;;;;;;5033429;28;20517;-72
2023/07/27 11:12:22;;;;;;;0.80;0.80;;;15.10;99.90;;;;;;5048888;28;20644;-72
2023/07/27 11:14:51;;;;;;;0.70;0.60;;;15.10;99.90;;;;;;4996223;28;1743309;-72
2023/07/27 11:17:19;;;;;;;1.00;0.70;;;15.10;99.90;;;;;;5035324;28;20079;-72
2023/07/27 11:19:47;;;;;;;0.82;0.80;;;15.20;99.90;;;;;;5027545;28;20041;-72
2023/07/27 11:22:15;;;;;;;0.75;0.68;;;15.30;99.90;;;;;;5031123;28;20090;-72
2023/07/27 11:24:42;;;;;;;1.08;0.88;;;15.30;99.90;;;;;;5027118;28;20048;-72
2023/07/27 11:27:10;;;;;;;1.05;0.90;;;15.40;99.90;;;;;;5034026;28;20132;-72
2023/07/27 11:29:45;;;;;;;1.55;0.90;;;15.50;99.90;;;;;;5040141;28;20041;-72
2023/07/27 11:32:12;;;;;;;1.25;1.00;;;15.60;99.90;;;;;;5020978;28;20044;-72
2023/07/27 11:34:38;;;;;;;0.93;0.65;;;15.70;99.90;;;;;;5039872;28;20110;-72
2023/07/27 11:37:05;;;;;;;1.00;0.68;;;15.80;99.90;;;;;;5035294;28;20090;-73
2023/07/27 11:39:32;;;;;;;0.95;0.90;;;15.80;99.90;;;;;;5034787;28;20160;-73
2023/07/27 11:42:09;;;;;;;0.98;0.73;;;15.80;99.90;;;;;;5033080;28;20037;-72
2023/07/27 11:44:37;;;;;;;2.03;0.93;;;15.80;99.90;;;;;;5035300;28;20041;-73
2023/07/27 11:47:03;;;;;;;0.65;0.60;;;15.70;99.90;;;;;;5055459;28;20032;-73
2023/07/27 11:49:30;;;;;;;0.50;0.50;;;15.80;99.90;;;;;;5052096;28;20370;-72
2023/07/27 11:51:58;;;;;;;0.90;0.52;;;15.80;99.90;;;;;;5031611;28;20087;-72
2023/07/27 11:54:27;;;;;;;1.40;0.88;;;15.80;99.90;;;;;;5020179;28;20045;-72
2023/07/27 11:56:56;;;;;;;0.75;0.70;;;15.90;99.90;;;;;;5013991;28;20059;-72
2023/07/27 11:59:23;;;;;;;6.85;0.80;;;16.00;99.90;;;;;;5032493;28;20091;-72
2023/07/27 12:01:51;;;;;;;0.47;0.47;;;16.00;99.90;;;;;;5031076;28;20128;-72
2023/07/27 12:04:19;;;;;;;0.60;0.60;;;16.00;99.90;;;;;;5023498;28;20051;-73
2023/07/27 12:06:47;;;;;;;1.20;0.80;;;16.00;99.90;;;;;;5042824;28;20041;-72
2023/07/27 12:09:15;;;;;;;2.35;1.60;;;16.00;99.90;;;;;;5048208;28;20778;-72
2023/07/27 12:11:43;;;;;;;2.30;1.67;;;16.00;99.90;;;;;;5036089;28;20506;-73
2023/07/27 12:14:10;;;;;;;2.85;2.13;;;16.00;99.90;;;;;;5037281;28;20260;-72
2023/07/27 12:16:43;;;;;;;1.35;1.02;;;16.10;99.90;;;;;;5038899;28;20043;-72
2023/07/27 12:19:13;;;;;;;2.35;0.60;;;16.00;99.90;;;;;;5033628;28;20063;-72
2023/07/27 12:21:42;;;;;;;1.88;0.55;;;16.00;99.90;;;;;;5040892;28;20037;-73
2023/07/27 12:24:10;;;;;;;1.85;0.70;;;16.00;99.90;;;;;;5035595;28;20064;-74
2023/07/27 12:26:40;;;;;;;1.38;0.88;;;15.90;99.90;;;;;;5039762;28;20044;-73
2023/07/27 12:29:09;;;;;;;0.50;0.50;;;15.90;99.90;;;;;;5037643;28;20048;-73
2023/07/27 12:31:39;;;;;;;0.60;0.60;;;16.00;99.90;;;;;;5042111;28;20049;-73
2023/07/27 12:34:09;;;;;;;2.15;0.70;;;16.00;99.90;;;;;;5022395;28;20052;-73
2023/07/27 12:36:35;;;;;;;0.70;0.70;;;16.00;99.90;;;;;;5029789;28;20045;-73
2023/07/27 12:39:02;;;;;;;0.80;0.77;;;16.10;99.90;;;;;;5025584;28;20478;-72